»·PEaware :: CHEVY57 KONT-KONT

CHEVY57 :: KONT-KONT

FLIGHT INFORMATION

Flight Status: Arrived
Operator: Unknown
More flights by this operator :: More flights under this callsign
Pilot: Anonymous 2822 (2822)
Aircraft: MCDONNELL-DOUGLAS F-4 PHANTOM
(F4)
More flights by this aircraft type
Origin: KONT Ontario Intl
United States
Destination: KONT Ontario Intl
United States
More flights between these airports :: More routes between these airports
Route: +PATTERN
File this flight plan on PilotEdge
Remarks: New ride...hope I don't pile-drive ;)
Altitude:
(Current/Filed)
3,000ft
Speed:
(Current/Filed)
320kts
Departed: 29-Nov-15 06:04 PM
Arrived: 29-Nov-15 06:32 PM
Distance/Time
Traveled:
1nm/0:28
Distance/Time
To Go:
Arrived

Flight Plot

Page will automatically refresh every two minutes.


Map Options




Map Legend


Flown Route
Filed Route
Departure Airport
Arrival Airport
Navaid (VOR, NDB)
Fix

Horizontal Profiles

Position Reports

Time Latitude Longitude Heading Altitude Ground
Speed
29-Nov-15 17:47 34.051345 -117.582164 90 949ft 0kts
29-Nov-15 17:48 34.051345 -117.582163 90 949ft 0kts
29-Nov-15 17:49 34.051345 -117.582162 90 949ft 0kts
29-Nov-15 17:50 34.051345 -117.582161 90 949ft 0kts
29-Nov-15 17:51 34.051345 -117.582160 90 949ft 0kts
29-Nov-15 17:52 34.051345 -117.582158 90 949ft 0kts
29-Nov-15 17:53 34.051345 -117.582157 90 949ft 0kts
29-Nov-15 17:54 34.051345 -117.582156 90 949ft 0kts
29-Nov-15 17:55 34.051345 -117.582155 90 949ft 0kts
29-Nov-15 17:56 34.051345 -117.582154 90 949ft 0kts
29-Nov-15 17:57 34.051344 -117.581638 90 949ft 7kts
29-Nov-15 17:58 34.052415 -117.582655 348 949ft 11kts
29-Nov-15 17:59 34.054365 -117.582680 359 949ft 0kts
29-Nov-15 18:00 34.054366 -117.582680 359 949ft 0kts
29-Nov-15 18:01 34.054967 -117.586769 269 949ft 129kts
29-Nov-15 18:02 34.031027 -117.600692 88 2368ft 244kts
29-Nov-15 18:03 34.052668 -117.563026 295 1346ft 179kts
29-Nov-15 18:04 34.048001 -117.632441 198 1604ft 293kts
29-Nov-15 18:05 34.030000 -117.569270 90 2529ft 223kts
29-Nov-15 18:06 34.054955 -117.578058 270 1037ft 180kts
29-Nov-15 18:07 34.031774 -117.625448 101 2135ft 252kts
29-Nov-15 18:08 34.035178 -117.556299 26 2254ft 202kts
29-Nov-15 18:09 34.054988 -117.599782 269 974ft 239kts
29-Nov-15 18:10 34.029358 -117.592568 90 2387ft 211kts
29-Nov-15 18:11 34.054810 -117.573716 274 1099ft 174kts
29-Nov-15 18:12 34.037438 -117.629121 138 2167ft 289kts
29-Nov-15 18:13 34.032385 -117.564600 58 2188ft 202kts
29-Nov-15 18:14 34.055035 -117.597273 269 959ft 201kts
29-Nov-15 18:15 34.031065 -117.589362 94 2539ft 216kts
29-Nov-15 18:16 34.054940 -117.582872 270 1002ft 201kts
29-Nov-15 18:17 34.031744 -117.608643 87 2495ft 235kts
29-Nov-15 18:18 34.048482 -117.560481 311 1421ft 182kts
29-Nov-15 18:19 34.051577 -117.630221 220 1392ft 321kts
29-Nov-15 18:20 34.031418 -117.563995 61 2482ft 214kts
29-Nov-15 18:21 34.054967 -117.590422 269 950ft 150kts
29-Nov-15 18:22 34.031299 -117.593961 92 2524ft 245kts
29-Nov-15 18:23 34.053606 -117.567078 283 1245ft 187kts
29-Nov-15 18:24 34.038903 -117.633755 156 1948ft 293kts
29-Nov-15 18:25 34.034515 -117.563102 41 2354ft 216kts
29-Nov-15 18:26 34.054926 -117.606295 269 983ft 321kts
29-Nov-15 18:27 34.028783 -117.580073 91 2474ft 216kts
29-Nov-15 18:28 34.054892 -117.571666 272 1131ft 213kts
29-Nov-15 18:29 34.054951 -117.610940 267 949ft 9kts
29-Nov-15 18:30 34.053810 -117.612441 226 949ft 7kts
29-Nov-15 18:31 34.052613 -117.612664 89 949ft 3kts
29-Nov-15 18:32 34.052614 -117.612593 89 949ft 0kts
29-Nov-15 18:33 34.052614 -117.612592 89 949ft 0kts
29-Nov-15 18:34 34.052614 -117.612591 89 949ft 0kts
29-Nov-15 18:35 34.052614 -117.612591 89 949ft 0kts
29-Nov-15 18:36 34.052614 -117.612591 89 949ft 0kts
29-Nov-15 18:37 34.052614 -117.612591 89 949ft 0kts
29-Nov-15 18:38 34.052614 -117.612591 89 949ft 0kts
29-Nov-15 18:39 34.052614 -117.612591 89 949ft 0kts

Navigation Log

Ident Type
Flight plan parsing failed, navigation log unavailable